sensor_id;sensor_type;location;lat;lon;timestamp;pressure;altitude;pressure_sealevel;temperature;humidity
23427;BME280;41148;45.420;10.952;2023-04-15T00:01:15;99599.56;;;10.92;64.76
23427;BME280;41148;45.420;10.952;2023-04-15T00:03:45;99593.50;;;10.88;66.00
23427;BME280;41148;45.420;10.952;2023-04-15T00:06:14;99586.78;;;10.80;66.74
23427;BME280;41148;45.420;10.952;2023-04-15T00:08:41;99591.81;;;10.67;68.06
23427;BME280;41148;45.420;10.952;2023-04-15T00:11:09;99595.84;;;10.57;68.69
23427;BME280;41148;45.420;10.952;2023-04-15T00:13:37;99594.13;;;10.56;68.62
23427;BME280;41148;45.420;10.952;2023-04-15T00:16:06;99586.72;;;10.63;68.59
23427;BME280;41148;45.420;10.952;2023-04-15T00:18:35;99582.81;;;10.70;68.30
23427;BME280;41148;45.420;10.952;2023-04-15T00:21:04;99581.69;;;10.75;68.33
23427;BME280;41148;45.420;10.952;2023-04-15T00:23:31;99581.09;;;10.69;68.31
23427;BME280;41148;45.420;10.952;2023-04-15T00:25:59;99582.69;;;10.73;69.08
23427;BME280;41148;45.420;10.952;2023-04-15T00:28:26;99577.44;;;10.71;69.75
23427;BME280;41148;45.420;10.952;2023-04-15T00:30:54;99582.25;;;10.63;69.21
23427;BME280;41148;45.420;10.952;2023-04-15T00:33:21;99573.59;;;10.58;69.90
23427;BME280;41148;45.420;10.952;2023-04-15T00:35:48;99576.56;;;10.31;70.82
23427;BME280;41148;45.420;10.952;2023-04-15T00:38:17;99572.53;;;10.21;71.44
23427;BME280;41148;45.420;10.952;2023-04-15T00:40:44;99577.56;;;10.09;72.13
23427;BME280;41148;45.420;10.952;2023-04-15T00:43:12;99581.88;;;10.11;72.67
23427;BME280;41148;45.420;10.952;2023-04-15T00:45:39;99575.50;;;9.95;72.66
23427;BME280;41148;45.420;10.952;2023-04-15T00:48:09;99577.25;;;9.74;74.26
23427;BME280;41148;45.420;10.952;2023-04-15T00:50:37;99572.16;;;9.90;74.16
23427;BME280;41148;45.420;10.952;2023-04-15T00:53:05;99576.38;;;9.73;75.05
23427;BME280;41148;45.420;10.952;2023-04-15T00:55:32;99572.06;;;9.71;75.63
23427;BME280;41148;45.420;10.952;2023-04-15T00:57:59;99575.94;;;9.84;75.08
23427;BME280;41148;45.420;10.952;2023-04-15T01:03:20;99577.94;;;9.37;77.44
23427;BME280;41148;45.420;10.952;2023-04-15T01:05:48;99578.34;;;9.48;77.24
23427;BME280;41148;45.420;10.952;2023-04-15T01:08:16;99569.00;;;9.60;76.60
23427;BME280;41148;45.420;10.952;2023-04-15T01:10:44;99575.41;;;9.76;76.21
23427;BME280;41148;45.420;10.952;2023-04-15T01:13:12;99562.13;;;9.76;75.73
23427;BME280;41148;45.420;10.952;2023-04-15T01:15:39;99574.34;;;9.80;75.58
23427;BME280;41148;45.420;10.952;2023-04-15T01:18:06;99573.56;;;9.78;75.82
23427;BME280;41148;45.420;10.952;2023-04-15T01:20:37;99568.16;;;9.80;75.90
23427;BME280;41148;45.420;10.952;2023-04-15T01:23:05;99580.75;;;9.76;75.62
23427;BME280;41148;45.420;10.952;2023-04-15T01:25:33;99574.13;;;9.64;75.96
23427;BME280;41148;45.420;10.952;2023-04-15T01:28:00;99576.13;;;9.59;76.20
23427;BME280;41148;45.420;10.952;2023-04-15T01:30:33;99575.59;;;9.71;75.31
23427;BME280;41148;45.420;10.952;2023-04-15T01:33:00;99576.47;;;9.72;75.07
23427;BME280;41148;45.420;10.952;2023-04-15T01:35:46;99581.28;;;9.62;76.09
23427;BME280;41148;45.420;10.952;2023-04-15T01:38:14;99573.25;;;9.64;75.97
23427;BME280;41148;45.420;10.952;2023-04-15T01:40:41;99571.66;;;9.60;76.03
23427;BME280;41148;45.420;10.952;2023-04-15T01:43:10;99574.28;;;9.39;76.74
23427;BME280;41148;45.420;10.952;2023-04-15T01:45:38;99571.19;;;9.50;76.61
23427;BME280;41148;45.420;10.952;2023-04-15T01:48:07;99572.75;;;9.54;76.46
23427;BME280;41148;45.420;10.952;2023-04-15T01:50:38;99571.13;;;9.72;75.37
23427;BME280;41148;45.420;10.952;2023-04-15T01:53:07;99572.00;;;9.72;75.44
23427;BME280;41148;45.420;10.952;2023-04-15T01:55:36;99565.09;;;9.68;76.37
23427;BME280;41148;45.420;10.952;2023-04-15T01:58:04;99563.84;;;9.55;76.82
23427;BME280;41148;45.420;10.952;2023-04-15T02:03:32;99570.06;;;9.56;76.80
23427;BME280;41148;45.420;10.952;2023-04-15T02:06:01;99566.47;;;9.57;78.27
23427;BME280;41148;45.420;10.952;2023-04-15T02:08:30;99576.25;;;9.56;77.76
23427;BME280;41148;45.420;10.952;2023-04-15T02:10:58;99571.03;;;9.53;77.83
23427;BME280;41148;45.420;10.952;2023-04-15T02:13:29;99569.59;;;9.46;78.01
23427;BME280;41148;45.420;10.952;2023-04-15T02:15:57;99573.41;;;9.39;78.54
23427;BME280;41148;45.420;10.952;2023-04-15T02:18:27;99574.22;;;9.41;78.14
23427;BME280;41148;45.420;10.952;2023-04-15T02:20:55;99571.84;;;9.33;78.07
23427;BME280;41148;45.420;10.952;2023-04-15T02:23:26;99574.50;;;9.33;77.88
23427;BME280;41148;45.420;10.952;2023-04-15T02:25:54;99575.31;;;9.35;78.32
23427;BME280;41148;45.420;10.952;2023-04-15T02:28:23;99576.59;;;9.27;77.91
23427;BME280;41148;45.420;10.952;2023-04-15T02:30:52;99571.81;;;9.13;79.00
23427;BME280;41148;45.420;10.952;2023-04-15T02:33:22;99580.75;;;9.10;78.90
23427;BME280;41148;45.420;10.952;2023-04-15T02:35:50;99577.31;;;9.08;79.03
23427;BME280;41148;45.420;10.952;2023-04-15T02:38:20;99583.16;;;9.16;78.34
23427;BME280;41148;45.420;10.952;2023-04-15T02:40:49;99581.91;;;9.03;79.38
23427;BME280;41148;45.420;10.952;2023-04-15T02:43:18;99588.06;;;8.82;80.40
23427;BME280;41148;45.420;10.952;2023-04-15T02:45:47;99590.09;;;8.75;80.33
23427;BME280;41148;45.420;10.952;2023-04-15T02:48:16;99586.78;;;8.45;80.68
23427;BME280;41148;45.420;10.952;2023-04-15T02:50:46;99581.53;;;8.44;80.98
23427;BME280;41148;45.420;10.952;2023-04-15T02:53:16;99593.50;;;8.30;81.81
23427;BME280;41148;45.420;10.952;2023-04-15T02:55:45;99599.41;;;8.39;81.10
23427;BME280;41148;45.420;10.952;2023-04-15T02:58:14;99595.94;;;8.37;80.86
23427;BME280;41148;45.420;10.952;2023-04-15T03:00:44;99606.06;;;8.25;81.94
23427;BME280;41148;45.420;10.952;2023-04-15T03:03:13;99592.03;;;8.22;81.71
23427;BME280;41148;45.420;10.952;2023-04-15T03:05:43;99595.25;;;8.31;81.73
23427;BME280;41148;45.420;10.952;2023-04-15T03:08:12;99604.06;;;8.07;82.38
23427;BME280;41148;45.420;10.952;2023-04-15T03:10:42;99594.03;;;7.90;83.28
23427;BME280;41148;45.420;10.952;2023-04-15T03:13:10;99603.31;;;8.03;83.06
23427;BME280;41148;45.420;10.952;2023-04-15T03:15:40;99603.38;;;8.00;83.18
23427;BME280;41148;45.420;10.952;2023-04-15T03:18:09;99615.53;;;8.08;83.23
23427;BME280;41148;45.420;10.952;2023-04-15T03:20:38;99612.66;;;8.14;82.40
23427;BME280;41148;45.420;10.952;2023-04-15T03:23:07;99615.66;;;8.04;82.55
23427;BME280;41148;45.420;10.952;2023-04-15T03:25:36;99598.50;;;7.88;83.10
23427;BME280;41148;45.420;10.952;2023-04-15T03:28:07;99596.66;;;7.92;83.45
23427;BME280;41148;45.420;10.952;2023-04-15T03:30:35;99600.16;;;8.17;82.22
23427;BME280;41148;45.420;10.952;2023-04-15T03:33:04;99607.19;;;8.18;81.87
23427;BME280;41148;45.420;10.952;2023-04-15T03:35:33;99610.38;;;8.28;81.40
23427;BME280;41148;45.420;10.952;2023-04-15T03:38:02;99605.41;;;8.19;81.97
23427;BME280;41148;45.420;10.952;2023-04-15T03:40:31;99613.09;;;8.26;81.32
23427;BME280;41148;45.420;10.952;2023-04-15T03:42:59;99593.78;;;8.23;81.15
23427;BME280;41148;45.420;10.952;2023-04-15T03:45:28;99611.19;;;8.05;81.81
23427;BME280;41148;45.420;10.952;2023-04-15T03:47:57;99610.13;;;8.11;81.71
23427;BME280;41148;45.420;10.952;2023-04-15T03:50:43;99621.81;;;8.05;82.39
23427;BME280;41148;45.420;10.952;2023-04-15T03:53:12;99619.72;;;7.88;83.17
23427;BME280;41148;45.420;10.952;2023-04-15T03:55:41;99610.00;;;7.89;83.17
23427;BME280;41148;45.420;10.952;2023-04-15T03:58:10;99621.22;;;7.97;83.12
23427;BME280;41148;45.420;10.952;2023-04-15T04:03:43;99622.75;;;8.04;80.76
23427;BME280;41148;45.420;10.952;2023-04-15T04:06:13;99620.47;;;8.18;80.22
23427;BME280;41148;45.420;10.952;2023-04-15T04:08:43;99627.13;;;8.05;80.37
23427;BME280;41148;45.420;10.952;2023-04-15T04:11:11;99628.47;;;7.92;81.76
23427;BME280;41148;45.420;10.952;2023-04-15T04:13:41;99609.91;;;7.92;81.59
23427;BME280;41148;45.420;10.952;2023-04-15T04:16:09;99621.22;;;7.97;81.75
23427;BME280;41148;45.420;10.952;2023-04-15T04:18:38;99623.63;;;7.78;81.98
23427;BME280;41148;45.420;10.952;2023-04-15T04:21:07;99630.59;;;7.81;82.39
23427;BME280;41148;45.420;10.952;2023-04-15T04:23:36;99629.16;;;7.97;82.00
23427;BME280;41148;45.420;10.952;2023-04-15T04:26:04;99629.47;;;7.88;81.87
23427;BME280;41148;45.420;10.952;2023-04-15T04:28:33;99629.09;;;7.98;81.67
23427;BME280;41148;45.420;10.952;2023-04-15T04:31:02;99632.97;;;8.15;80.89
23427;BME280;41148;45.420;10.952;2023-04-15T04:33:31;99633.63;;;8.21;81.04
23427;BME280;41148;45.420;10.952;2023-04-15T04:36:00;99639.63;;;8.01;81.81
23427;BME280;41148;45.420;10.952;2023-04-15T04:38:28;99641.94;;;7.86;82.89
23427;BME280;41148;45.420;10.952;2023-04-15T04:40:57;99641.56;;;7.70;83.70
23427;BME280;41148;45.420;10.952;2023-04-15T04:43:26;99640.69;;;7.69;83.01
23427;BME280;41148;45.420;10.952;2023-04-15T04:45:54;99643.09;;;7.77;81.94
23427;BME280;41148;45.420;10.952;2023-04-15T04:48:23;99641.19;;;7.81;81.49
23427;BME280;41148;45.420;10.952;2023-04-15T04:50:52;99636.13;;;7.74;81.74
23427;BME280;41148;45.420;10.952;2023-04-15T04:53:21;99646.19;;;7.90;81.57
23427;BME280;41148;45.420;10.952;2023-04-15T04:55:49;99649.88;;;7.86;80.81
23427;BME280;41148;45.420;10.952;2023-04-15T04:58:18;99650.81;;;7.85;79.74
23427;BME280;41148;45.420;10.952;2023-04-15T05:03:50;99655.25;;;7.84;80.33
23427;BME280;41148;45.420;10.952;2023-04-15T05:06:19;99661.94;;;7.68;80.98
23427;BME280;41148;45.420;10.952;2023-04-15T05:09:05;99670.72;;;7.70;80.99
23427;BME280;41148;45.420;10.952;2023-04-15T05:11:34;99674.78;;;7.82;81.20
23427;BME280;41148;45.420;10.952;2023-04-15T05:14:03;99674.63;;;7.86;81.04
23427;BME280;41148;45.420;10.952;2023-04-15T05:16:31;99673.53;;;7.65;81.81
23427;BME280;41148;45.420;10.952;2023-04-15T05:19:00;99679.66;;;7.67;82.29
23427;BME280;41148;45.420;10.952;2023-04-15T05:21:29;99679.47;;;7.72;82.01
23427;BME280;41148;45.420;10.952;2023-04-15T05:23:59;99683.78;;;7.76;82.24
23427;BME280;41148;45.420;10.952;2023-04-15T05:26:28;99674.84;;;7.79;81.93
23427;BME280;41148;45.420;10.952;2023-04-15T05:28:56;99681.25;;;7.73;81.41
23427;BME280;41148;45.420;10.952;2023-04-15T05:31:25;99685.38;;;7.82;81.46
23427;BME280;41148;45.420;10.952;2023-04-15T05:33:54;99679.88;;;7.88;81.52
23427;BME280;41148;45.420;10.952;2023-04-15T05:36:22;99691.19;;;7.93;81.14
23427;BME280;41148;45.420;10.952;2023-04-15T05:38:51;99689.06;;;8.04;81.41
23427;BME280;41148;45.420;10.952;2023-04-15T05:41:19;99694.66;;;7.95;81.66
23427;BME280;41148;45.420;10.952;2023-04-15T05:43:48;99703.94;;;8.08;82.26
23427;BME280;41148;45.420;10.952;2023-04-15T05:46:17;99702.66;;;8.20;81.38
23427;BME280;41148;45.420;10.952;2023-04-15T05:48:46;99707.94;;;8.21;81.04
23427;BME280;41148;45.420;10.952;2023-04-15T05:51:14;99700.78;;;8.23;81.29
23427;BME280;41148;45.420;10.952;2023-04-15T05:53:43;99711.13;;;8.31;81.46
23427;BME280;41148;45.420;10.952;2023-04-15T05:56:13;99705.31;;;8.20;81.59
23427;BME280;41148;45.420;10.952;2023-04-15T05:58:41;99711.03;;;8.34;81.59
23427;BME280;41148;45.420;10.952;2023-04-15T06:01:10;99710.28;;;8.29;80.95
23427;BME280;41148;45.420;10.952;2023-04-15T06:03:39;99710.88;;;8.39;79.95
23427;BME280;41148;45.420;10.952;2023-04-15T06:06:08;99707.53;;;8.58;79.02
23427;BME280;41148;45.420;10.952;2023-04-15T06:08:37;99708.66;;;8.76;78.23
23427;BME280;41148;45.420;10.952;2023-04-15T06:11:07;99716.53;;;8.79;77.51
23427;BME280;41148;45.420;10.952;2023-04-15T06:13:35;99705.53;;;8.90;76.24
23427;BME280;41148;45.420;10.952;2023-04-15T06:16:04;99701.13;;;8.89;77.65
23427;BME280;41148;45.420;10.952;2023-04-15T06:18:33;99694.03;;;8.89;77.55
23427;BME280;41148;45.420;10.952;2023-04-15T06:21:03;99690.91;;;9.02;77.47
23427;BME280;41148;45.420;10.952;2023-04-15T06:23:35;99691.72;;;9.27;76.36
23427;BME280;41148;45.420;10.952;2023-04-15T06:26:03;99693.28;;;9.55;75.68
23427;BME280;41148;45.420;10.952;2023-04-15T06:28:33;99697.41;;;9.85;73.48
23427;BME280;41148;45.420;10.952;2023-04-15T06:31:02;99689.91;;;9.95;71.78
23427;BME280;41148;45.420;10.952;2023-04-15T06:33:31;99696.72;;;10.24;68.44
23427;BME280;41148;45.420;10.952;2023-04-15T06:35:59;99693.19;;;10.44;67.47
23427;BME280;41148;45.420;10.952;2023-04-15T06:38:28;99698.59;;;10.63;68.58
23427;BME280;41148;45.420;10.952;2023-04-15T06:40:57;99706.53;;;11.03;68.28
23427;BME280;41148;45.420;10.952;2023-04-15T06:43:26;99689.38;;;11.84;63.49
23427;BME280;41148;45.420;10.952;2023-04-15T06:45:57;99687.38;;;13.26;57.30
23427;BME280;41148;45.420;10.952;2023-04-15T06:48:26;99689.28;;;13.56;55.35
23427;BME280;41148;45.420;10.952;2023-04-15T06:50:55;99692.31;;;12.83;57.06
23427;BME280;41148;45.420;10.952;2023-04-15T06:53:25;99686.25;;;12.47;57.96
23427;BME280;41148;45.420;10.952;2023-04-15T06:55:55;99692.81;;;12.74;57.57
23427;BME280;41148;45.420;10.952;2023-04-15T06:58:26;99694.38;;;12.61;57.25
23427;BME280;41148;45.420;10.952;2023-04-15T07:00:55;99693.13;;;12.68;56.96
23427;BME280;41148;45.420;10.952;2023-04-15T07:03:24;99700.50;;;12.63;57.75
23427;BME280;41148;45.420;10.952;2023-04-15T07:05:52;99691.81;;;12.42;58.38
23427;BME280;41148;45.420;10.952;2023-04-15T07:08:22;99696.44;;;12.39;58.55
23427;BME280;41148;45.420;10.952;2023-04-15T07:10:50;99696.44;;;12.21;59.12
23427;BME280;41148;45.420;10.952;2023-04-15T07:13:19;99694.63;;;12.39;59.77
23427;BME280;41148;45.420;10.952;2023-04-15T07:15:49;99696.84;;;12.66;58.82
23427;BME280;41148;45.420;10.952;2023-04-15T07:18:17;99703.59;;;12.55;59.08
23427;BME280;41148;45.420;10.952;2023-04-15T07:20:46;99697.59;;;12.85;58.54
23427;BME280;41148;45.420;10.952;2023-04-15T07:23:15;99692.41;;;12.82;59.53
23427;BME280;41148;45.420;10.952;2023-04-15T07:25:44;99696.25;;;12.94;59.70
23427;BME280;41148;45.420;10.952;2023-04-15T07:28:13;99690.50;;;13.17;59.81
23427;BME280;41148;45.420;10.952;2023-04-15T07:30:41;99693.53;;;13.44;58.77
23427;BME280;41148;45.420;10.952;2023-04-15T07:33:10;99689.28;;;13.87;58.60
23427;BME280;41148;45.420;10.952;2023-04-15T07:35:39;99686.25;;;13.93;58.64
23427;BME280;41148;45.420;10.952;2023-04-15T07:38:08;99694.38;;;13.92;59.86
23427;BME280;41148;45.420;10.952;2023-04-15T07:40:37;99689.81;;;14.24;57.97
23427;BME280;41148;45.420;10.952;2023-04-15T07:43:07;99693.28;;;13.64;59.18
23427;BME280;41148;45.420;10.952;2023-04-15T07:45:36;99690.91;;;13.27;60.83
23427;BME280;41148;45.420;10.952;2023-04-15T07:48:05;99695.44;;;13.73;59.24
23427;BME280;41148;45.420;10.952;2023-04-15T07:50:34;99694.72;;;13.70;59.02
23427;BME280;41148;45.420;10.952;2023-04-15T07:53:02;99690.81;;;14.07;58.21
23427;BME280;41148;45.420;10.952;2023-04-15T07:55:31;99680.53;;;15.18;54.11
23427;BME280;41148;45.420;10.952;2023-04-15T07:58:00;99679.97;;;15.27;52.57
23427;BME280;41148;45.420;10.952;2023-04-15T08:00:29;99681.84;;;15.39;51.81
23427;BME280;41148;45.420;10.952;2023-04-15T08:02:57;99687.22;;;15.68;50.86
23427;BME280;41148;45.420;10.952;2023-04-15T08:05:27;99683.31;;;15.45;51.64
23427;BME280;41148;45.420;10.952;2023-04-15T08:07:56;99688.88;;;15.13;52.38
23427;BME280;41148;45.420;10.952;2023-04-15T08:10:24;99694.34;;;15.26;51.67
23427;BME280;41148;45.420;10.952;2023-04-15T08:12:53;99695.34;;;15.52;50.81
23427;BME280;41148;45.420;10.952;2023-04-15T08:15:22;99695.53;;;15.78;49.35
23427;BME280;41148;45.420;10.952;2023-04-15T08:17:51;99693.31;;;15.84;49.51
23427;BME280;41148;45.420;10.952;2023-04-15T08:20:19;99692.66;;;16.08;48.58
23427;BME280;41148;45.420;10.952;2023-04-15T08:22:48;99696.78;;;15.72;49.82
23427;BME280;41148;45.420;10.952;2023-04-15T08:25:19;99695.91;;;15.71;49.47
23427;BME280;41148;45.420;10.952;2023-04-15T08:27:48;99699.38;;;16.00;50.06
23427;BME280;41148;45.420;10.952;2023-04-15T08:30:17;99698.06;;;16.20;48.21
23427;BME280;41148;45.420;10.952;2023-04-15T08:32:46;99701.44;;;15.97;48.44
23427;BME280;41148;45.420;10.952;2023-04-15T08:35:15;99695.09;;;15.98;49.12
23427;BME280;41148;45.420;10.952;2023-04-15T08:37:44;99702.06;;;16.00;49.34
23427;BME280;41148;45.420;10.952;2023-04-15T08:40:12;99692.16;;;15.88;48.60
23427;BME280;41148;45.420;10.952;2023-04-15T08:42:44;99692.63;;;15.81;48.43
23427;BME280;41148;45.420;10.952;2023-04-15T08:45:15;99692.78;;;15.92;47.17
23427;BME280;41148;45.420;10.952;2023-04-15T08:47:47;99696.56;;;15.89;48.18
23427;BME280;41148;45.420;10.952;2023-04-15T08:50:18;99693.25;;;15.98;47.34
23427;BME280;41148;45.420;10.952;2023-04-15T08:52:48;99697.03;;;15.96;46.46
23427;BME280;41148;45.420;10.952;2023-04-15T08:55:17;99697.13;;;15.94;47.19
23427;BME280;41148;45.420;10.952;2023-04-15T08:57:46;99693.59;;;15.94;47.20
23427;BME280;41148;45.420;10.952;2023-04-15T09:00:15;99695.66;;;16.70;45.34
23427;BME280;41148;45.420;10.952;2023-04-15T09:02:44;99691.91;;;17.10;44.90
23427;BME280;41148;45.420;10.952;2023-04-15T09:05:14;99688.78;;;16.91;43.76
23427;BME280;41148;45.420;10.952;2023-04-15T09:07:44;99687.88;;;16.78;44.43
23427;BME280;41148;45.420;10.952;2023-04-15T09:10:12;99687.94;;;16.91;44.61
23427;BME280;41148;45.420;10.952;2023-04-15T09:12:41;99693.88;;;17.58;42.38
23427;BME280;41148;45.420;10.952;2023-04-15T09:15:10;99687.13;;;18.13;41.23
23427;BME280;41148;45.420;10.952;2023-04-15T09:17:43;99682.75;;;18.47;40.22
23427;BME280;41148;45.420;10.952;2023-04-15T09:20:14;99686.28;;;18.36;40.37
23427;BME280;41148;45.420;10.952;2023-04-15T09:22:44;99676.81;;;17.83;40.58
23427;BME280;41148;45.420;10.952;2023-04-15T09:27:59;99676.31;;;18.25;39.53
23427;BME280;41148;45.420;10.952;2023-04-15T09:30:29;99671.56;;;17.68;39.63
23427;BME280;41148;45.420;10.952;2023-04-15T09:32:59;99682.38;;;17.43;41.22
23427;BME280;41148;45.420;10.952;2023-04-15T09:35:29;99683.81;;;16.98;41.20
23427;BME280;41148;45.420;10.952;2023-04-15T09:38:08;99674.25;;;16.94;42.19
23427;BME280;41148;45.420;10.952;2023-04-15T09:40:40;99675.44;;;17.02;42.02
23427;BME280;41148;45.420;10.952;2023-04-15T09:43:09;99684.69;;;16.73;43.10
23427;BME280;41148;45.420;10.952;2023-04-15T09:45:49;99685.16;;;16.65;41.35
23427;BME280;41148;45.420;10.952;2023-04-15T09:48:22;99681.50;;;16.66;42.47
23427;BME280;41148;45.420;10.952;2023-04-15T09:50:52;99679.63;;;16.94;41.40
23427;BME280;41148;45.420;10.952;2023-04-15T09:53:23;99679.28;;;16.85;41.38
23427;BME280;41148;45.420;10.952;2023-04-15T09:58:24;99672.41;;;16.29;42.54
23427;BME280;41148;45.420;10.952;2023-04-15T10:00:55;99676.50;;;16.35;44.32
23427;BME280;41148;45.420;10.952;2023-04-15T10:03:28;99663.53;;;16.54;43.85
23427;BME280;41148;45.420;10.952;2023-04-15T10:05:59;99666.97;;;16.56;44.81
23427;BME280;41148;45.420;10.952;2023-04-15T10:08:30;99660.63;;;16.57;45.77
23427;BME280;41148;45.420;10.952;2023-04-15T10:11:00;99662.69;;;16.66;45.41
23427;BME280;41148;45.420;10.952;2023-04-15T10:13:31;99665.09;;;16.83;43.55
23427;BME280;41148;45.420;10.952;2023-04-15T10:18:46;99659.34;;;16.63;43.67
23427;BME280;41148;45.420;10.952;2023-04-15T10:21:16;99660.44;;;16.60;44.72
23427;BME280;41148;45.420;10.952;2023-04-15T10:23:46;99655.13;;;16.58;44.24
23427;BME280;41148;45.420;10.952;2023-04-15T10:26:16;99652.16;;;16.63;43.80
23427;BME280;41148;45.420;10.952;2023-04-15T10:28:45;99650.56;;;16.73;43.23
23427;BME280;41148;45.420;10.952;2023-04-15T10:31:17;99656.34;;;16.67;43.53
23427;BME280;41148;45.420;10.952;2023-04-15T10:33:48;99644.94;;;16.51;43.97
23427;BME280;41148;45.420;10.952;2023-04-15T10:36:18;99651.69;;;16.56;43.64
23427;BME280;41148;45.420;10.952;2023-04-15T10:38:47;99646.06;;;16.74;42.63
23427;BME280;41148;45.420;10.952;2023-04-15T10:41:26;99655.09;;;16.73;42.58
23427;BME280;41148;45.420;10.952;2023-04-15T10:44:00;99647.50;;;16.52;42.55
23427;BME280;41148;45.420;10.952;2023-04-15T10:46:40;99652.09;;;16.25;42.41
23427;BME280;41148;45.420;10.952;2023-04-15T10:49:11;99650.97;;;16.67;41.75
23427;BME280;41148;45.420;10.952;2023-04-15T10:54:14;99650.53;;;16.60;43.47
23427;BME280;41148;45.420;10.952;2023-04-15T10:56:50;99647.81;;;16.35;44.07
23427;BME280;41148;45.420;10.952;2023-04-15T10:59:19;99638.44;;;16.28;43.98
23427;BME280;41148;45.420;10.952;2023-04-15T11:01:54;99636.25;;;16.20;44.38
23427;BME280;41148;45.420;10.952;2023-04-15T11:04:58;99645.00;;;16.37;44.33
23427;BME280;41148;45.420;10.952;2023-04-15T11:07:55;99635.91;;;16.52;44.21
23427;BME280;41148;45.420;10.952;2023-04-15T11:12:57;99619.78;;;16.52;44.38
23427;BME280;41148;45.420;10.952;2023-04-15T11:15:34;99623.72;;;16.59;43.90
23427;BME280;41148;45.420;10.952;2023-04-15T11:18:20;99623.69;;;16.73;43.27
23427;BME280;41148;45.420;10.952;2023-04-15T11:21:02;99627.53;;;16.95;43.62
23427;BME280;41148;45.420;10.952;2023-04-15T11:23:38;99618.06;;;16.76;44.28
23427;BME280;41148;45.420;10.952;2023-04-15T11:26:08;99632.06;;;16.69;44.06
23427;BME280;41148;45.420;10.952;2023-04-15T11:28:42;99634.47;;;16.59;44.44
23427;BME280;41148;45.420;10.952;2023-04-15T11:31:12;99622.13;;;16.56;43.56
23427;BME280;41148;45.420;10.952;2023-04-15T11:33:45;99637.81;;;16.50;43.32
23427;BME280;41148;45.420;10.952;2023-04-15T11:36:14;99618.56;;;16.56;44.30
23427;BME280;41148;45.420;10.952;2023-04-15T11:38:45;99618.41;;;16.72;42.64
23427;BME280;41148;45.420;10.952;2023-04-15T11:41:19;99611.41;;;16.82;42.76
23427;BME280;41148;45.420;10.952;2023-04-15T11:43:49;99623.91;;;16.70;43.79
23427;BME280;41148;45.420;10.952;2023-04-15T11:46:18;99634.19;;;16.64;44.05
23427;BME280;41148;45.420;10.952;2023-04-15T11:48:47;99624.81;;;16.56;43.76
23427;BME280;41148;45.420;10.952;2023-04-15T11:51:15;99622.13;;;16.31;44.70
23427;BME280;41148;45.420;10.952;2023-04-15T11:53:45;99619.88;;;16.50;43.74
23427;BME280;41148;45.420;10.952;2023-04-15T11:56:22;99624.28;;;16.51;44.00
23427;BME280;41148;45.420;10.952;2023-04-15T11:58:57;99615.31;;;16.38;43.82
23427;BME280;41148;45.420;10.952;2023-04-15T12:01:33;99617.28;;;16.36;45.06
23427;BME280;41148;45.420;10.952;2023-04-15T12:04:36;99614.50;;;16.63;43.65
23427;BME280;41148;45.420;10.952;2023-04-15T12:07:04;99611.19;;;16.72;43.08
23427;BME280;41148;45.420;10.952;2023-04-15T12:09:36;99613.25;;;16.81;42.56
23427;BME280;41148;45.420;10.952;2023-04-15T12:12:04;99619.69;;;16.79;42.85
23427;BME280;41148;45.420;10.952;2023-04-15T12:14:32;99618.16;;;17.13;42.69
23427;BME280;41148;45.420;10.952;2023-04-15T12:17:02;99615.28;;;16.91;42.52
23427;BME280;41148;45.420;10.952;2023-04-15T12:19:41;99615.69;;;17.10;42.34
23427;BME280;41148;45.420;10.952;2023-04-15T12:22:14;99620.06;;;17.24;41.73
23427;BME280;41148;45.420;10.952;2023-04-15T12:24:44;99618.78;;;17.29;41.29
23427;BME280;41148;45.420;10.952;2023-04-15T12:27:15;99619.88;;;17.14;42.16
23427;BME280;41148;45.420;10.952;2023-04-15T12:29:42;99624.84;;;16.95;42.85
23427;BME280;41148;45.420;10.952;2023-04-15T12:32:12;99615.19;;;16.79;42.85
23427;BME280;41148;45.420;10.952;2023-04-15T12:34:44;99622.59;;;17.01;43.22
23427;BME280;41148;45.420;10.952;2023-04-15T12:37:15;99621.28;;;17.20;42.18
23427;BME280;41148;45.420;10.952;2023-04-15T12:39:46;99618.19;;;17.00;41.54
23427;BME280;41148;45.420;10.952;2023-04-15T12:42:16;99614.63;;;17.00;41.85
23427;BME280;41148;45.420;10.952;2023-04-15T12:44:43;99624.19;;;17.04;41.91
23427;BME280;41148;45.420;10.952;2023-04-15T12:47:11;99624.34;;;16.90;42.14
23427;BME280;41148;45.420;10.952;2023-04-15T12:49:39;99622.91;;;17.09;42.75
23427;BME280;41148;45.420;10.952;2023-04-15T12:52:07;99623.31;;;17.29;42.19
23427;BME280;41148;45.420;10.952;2023-04-15T12:54:35;99617.13;;;17.39;40.65
23427;BME280;41148;45.420;10.952;2023-04-15T12:57:02;99621.28;;;17.20;40.73
23427;BME280;41148;45.420;10.952;2023-04-15T12:59:33;99626.09;;;17.14;41.27
23427;BME280;41148;45.420;10.952;2023-04-15T13:02:03;99624.06;;;17.05;42.22
23427;BME280;41148;45.420;10.952;2023-04-15T13:04:30;99636.22;;;17.24;41.76
23427;BME280;41148;45.420;10.952;2023-04-15T13:06:58;99622.78;;;17.11;41.96
23427;BME280;41148;45.420;10.952;2023-04-15T13:09:26;99624.81;;;17.07;41.63
23427;BME280;41148;45.420;10.952;2023-04-15T13:11:53;99622.63;;;17.25;40.01
23427;BME280;41148;45.420;10.952;2023-04-15T13:14:21;99624.47;;;17.25;40.99
23427;BME280;41148;45.420;10.952;2023-04-15T13:16:48;99611.47;;;17.19;41.55
23427;BME280;41148;45.420;10.952;2023-04-15T13:19:16;99608.31;;;17.25;42.25
23427;BME280;41148;45.420;10.952;2023-04-15T13:21:43;99623.50;;;17.26;41.24
23427;BME280;41148;45.420;10.952;2023-04-15T13:24:10;99631.47;;;17.27;41.67
23427;BME280;41148;45.420;10.952;2023-04-15T13:26:38;99614.06;;;17.07;41.72
23427;BME280;41148;45.420;10.952;2023-04-15T13:29:05;99613.44;;;16.78;43.31
23427;BME280;41148;45.420;10.952;2023-04-15T13:31:33;99637.84;;;16.88;43.29
23427;BME280;41148;45.420;10.952;2023-04-15T13:34:01;99640.97;;;17.07;42.41